Terminal Aerodrome Forecast
Issued by NWS

Home | Current Version | Previous Version | Text Only | Print | Product List | Glossary On
Versions: 1 2 3 4 5 6 7 8 9 10 11 12 13 14 15 16 17
000
FTUS43 KJKL 301735
TAFSJS
TAF
KSJS 301735Z 3018/3118 18010G20KT P6SM SCT050 BKN180
     FM310600 18007KT 3SM -SHRA BR VCTS OVC035CB
     FM311000 24007KT P6SM VCSH OVC015
     FM311300 25007KT P6SM BKN025
     FM311600 26009KT P6SM -SHRA OVC015=

USA.gov is the U.S. government's official web portal to all federal, state and local government web resources and services.